sensor_id;sensor_type;location;lat;lon;timestamp;temperature;humidity
80258;DHT22;69565;37.974;23.708;2023-07-31T00:00:11;31.30;29.50
80258;DHT22;69565;37.974;23.708;2023-07-31T00:02:38;31.30;29.40
80258;DHT22;69565;37.974;23.708;2023-07-31T00:05:04;31.30;29.40
80258;DHT22;69565;37.974;23.708;2023-07-31T00:07:29;31.30;29.40
80258;DHT22;69565;37.974;23.708;2023-07-31T00:09:55;31.30;29.30
80258;DHT22;69565;37.974;23.708;2023-07-31T00:12:22;31.20;29.10
80258;DHT22;69565;37.974;23.708;2023-07-31T00:14:49;31.30;29.20
80258;DHT22;69565;37.974;23.708;2023-07-31T00:17:17;31.20;29.00
80258;DHT22;69565;37.974;23.708;2023-07-31T00:19:43;31.20;29.00
80258;DHT22;69565;37.974;23.708;2023-07-31T00:22:09;31.20;28.90
80258;DHT22;69565;37.974;23.708;2023-07-31T00:24:34;31.20;28.90
80258;DHT22;69565;37.974;23.708;2023-07-31T00:27:00;31.20;28.80
80258;DHT22;69565;37.974;23.708;2023-07-31T00:29:26;31.20;28.00
80258;DHT22;69565;37.974;23.708;2023-07-31T00:31:51;31.20;28.70
80258;DHT22;69565;37.974;23.708;2023-07-31T00:34:17;31.20;28.50
80258;DHT22;69565;37.974;23.708;2023-07-31T00:36:42;31.20;28.60
80258;DHT22;69565;37.974;23.708;2023-07-31T00:39:08;31.10;28.50
80258;DHT22;69565;37.974;23.708;2023-07-31T00:41:34;31.10;28.50
80258;DHT22;69565;37.974;23.708;2023-07-31T00:43:59;31.10;28.70
80258;DHT22;69565;37.974;23.708;2023-07-31T00:46:25;31.10;28.70
80258;DHT22;69565;37.974;23.708;2023-07-31T00:48:51;31.10;28.80
80258;DHT22;69565;37.974;23.708;2023-07-31T00:51:16;31.10;28.80
80258;DHT22;69565;37.974;23.708;2023-07-31T00:53:43;31.10;28.80
80258;DHT22;69565;37.974;23.708;2023-07-31T00:56:10;31.00;28.90
80258;DHT22;69565;37.974;23.708;2023-07-31T00:58:36;31.00;28.90
80258;DHT22;69565;37.974;23.708;2023-07-31T01:01:02;31.10;28.90
80258;DHT22;69565;37.974;23.708;2023-07-31T01:03:27;31.10;28.90
80258;DHT22;69565;37.974;23.708;2023-07-31T01:06:01;31.00;28.80
80258;DHT22;69565;37.974;23.708;2023-07-31T01:11:19;31.00;28.50
80258;DHT22;69565;37.974;23.708;2023-07-31T01:13:47;31.00;28.40
80258;DHT22;69565;37.974;23.708;2023-07-31T01:16:13;31.00;28.30
80258;DHT22;69565;37.974;23.708;2023-07-31T01:18:38;31.00;28.30
80258;DHT22;69565;37.974;23.708;2023-07-31T01:21:29;31.00;28.40
80258;DHT22;69565;37.974;23.708;2023-07-31T01:26:38;30.90;28.30
80258;DHT22;69565;37.974;23.708;2023-07-31T01:31:42;30.90;28.20
80258;DHT22;69565;37.974;23.708;2023-07-31T01:34:10;30.90;28.20
80258;DHT22;69565;37.974;23.708;2023-07-31T01:36:36;30.90;28.10
80258;DHT22;69565;37.974;23.708;2023-07-31T01:39:02;30.80;28.10
80258;DHT22;69565;37.974;23.708;2023-07-31T01:41:29;30.90;28.10
80258;DHT22;69565;37.974;23.708;2023-07-31T01:43:55;30.80;28.00
80258;DHT22;69565;37.974;23.708;2023-07-31T01:46:20;30.80;27.90
80258;DHT22;69565;37.974;23.708;2023-07-31T01:48:46;30.90;27.90
80258;DHT22;69565;37.974;23.708;2023-07-31T01:51:12;30.90;27.80
80258;DHT22;69565;37.974;23.708;2023-07-31T01:53:37;30.90;27.70
80258;DHT22;69565;37.974;23.708;2023-07-31T01:56:03;30.90;27.60
80258;DHT22;69565;37.974;23.708;2023-07-31T01:58:29;30.90;27.60
80258;DHT22;69565;37.974;23.708;2023-07-31T02:00:55;30.90;27.70
80258;DHT22;69565;37.974;23.708;2023-07-31T02:03:20;30.90;27.50
80258;DHT22;69565;37.974;23.708;2023-07-31T02:05:47;30.90;27.50
80258;DHT22;69565;37.974;23.708;2023-07-31T02:08:13;30.90;27.60
80258;DHT22;69565;37.974;23.708;2023-07-31T02:10:39;30.90;27.60
80258;DHT22;69565;37.974;23.708;2023-07-31T02:13:05;30.90;27.60
80258;DHT22;69565;37.974;23.708;2023-07-31T02:15:31;30.90;27.60
80258;DHT22;69565;37.974;23.708;2023-07-31T02:17:57;30.80;28.40
80258;DHT22;69565;37.974;23.708;2023-07-31T02:20:23;30.80;27.60
80258;DHT22;69565;37.974;23.708;2023-07-31T02:22:49;30.80;27.60
80258;DHT22;69565;37.974;23.708;2023-07-31T02:25:14;30.80;27.60
80258;DHT22;69565;37.974;23.708;2023-07-31T02:27:40;30.80;27.70
80258;DHT22;69565;37.974;23.708;2023-07-31T02:30:06;30.80;27.70
80258;DHT22;69565;37.974;23.708;2023-07-31T02:32:32;30.80;27.70
80258;DHT22;69565;37.974;23.708;2023-07-31T02:34:58;30.80;27.70
80258;DHT22;69565;37.974;23.708;2023-07-31T02:37:24;30.70;27.70
80258;DHT22;69565;37.974;23.708;2023-07-31T02:39:50;30.70;27.80
80258;DHT22;69565;37.974;23.708;2023-07-31T02:42:16;30.80;28.60
80258;DHT22;69565;37.974;23.708;2023-07-31T02:44:41;30.80;27.80
80258;DHT22;69565;37.974;23.708;2023-07-31T02:47:07;30.70;27.80
80258;DHT22;69565;37.974;23.708;2023-07-31T02:49:33;30.70;27.90
80258;DHT22;69565;37.974;23.708;2023-07-31T02:51:59;30.70;27.90
80258;DHT22;69565;37.974;23.708;2023-07-31T02:54:24;30.70;28.00
80258;DHT22;69565;37.974;23.708;2023-07-31T02:56:50;30.70;28.10
80258;DHT22;69565;37.974;23.708;2023-07-31T02:59:17;30.70;28.20
80258;DHT22;69565;37.974;23.708;2023-07-31T03:01:42;30.70;28.30
80258;DHT22;69565;37.974;23.708;2023-07-31T03:04:08;30.70;28.30
80258;DHT22;69565;37.974;23.708;2023-07-31T03:06:34;30.70;28.40
80258;DHT22;69565;37.974;23.708;2023-07-31T03:08:59;30.70;28.40
80258;DHT22;69565;37.974;23.708;2023-07-31T03:11:25;30.70;28.50
80258;DHT22;69565;37.974;23.708;2023-07-31T03:13:51;30.60;28.40
80258;DHT22;69565;37.974;23.708;2023-07-31T03:16:16;30.60;28.40
80258;DHT22;69565;37.974;23.708;2023-07-31T03:18:42;30.60;28.50
80258;DHT22;69565;37.974;23.708;2023-07-31T03:21:08;30.60;28.50
80258;DHT22;69565;37.974;23.708;2023-07-31T03:23:33;30.60;28.40
80258;DHT22;69565;37.974;23.708;2023-07-31T03:26:05;30.60;28.40
80258;DHT22;69565;37.974;23.708;2023-07-31T03:28:31;30.60;28.40
80258;DHT22;69565;37.974;23.708;2023-07-31T03:30:56;30.70;28.50
80258;DHT22;69565;37.974;23.708;2023-07-31T03:33:22;30.70;29.30
80258;DHT22;69565;37.974;23.708;2023-07-31T03:35:48;30.70;28.50
80258;DHT22;69565;37.974;23.708;2023-07-31T03:38:13;30.70;28.60
80258;DHT22;69565;37.974;23.708;2023-07-31T03:40:39;30.70;28.60
80258;DHT22;69565;37.974;23.708;2023-07-31T03:43:05;30.70;28.70
80258;DHT22;69565;37.974;23.708;2023-07-31T03:45:31;30.70;28.80
80258;DHT22;69565;37.974;23.708;2023-07-31T03:47:57;30.70;28.90
80258;DHT22;69565;37.974;23.708;2023-07-31T03:50:22;30.70;29.00
80258;DHT22;69565;37.974;23.708;2023-07-31T03:52:48;30.70;29.10
80258;DHT22;69565;37.974;23.708;2023-07-31T03:55:14;30.70;29.20
80258;DHT22;69565;37.974;23.708;2023-07-31T03:57:39;30.70;29.30
80258;DHT22;69565;37.974;23.708;2023-07-31T04:00:05;30.70;29.30
80258;DHT22;69565;37.974;23.708;2023-07-31T04:02:31;30.70;29.20
80258;DHT22;69565;37.974;23.708;2023-07-31T04:04:57;30.70;29.20
80258;DHT22;69565;37.974;23.708;2023-07-31T04:07:23;30.80;29.30
80258;DHT22;69565;37.974;23.708;2023-07-31T04:09:48;30.80;29.30
80258;DHT22;69565;37.974;23.708;2023-07-31T04:12:14;30.80;29.30
80258;DHT22;69565;37.974;23.708;2023-07-31T04:14:40;30.80;29.30
80258;DHT22;69565;37.974;23.708;2023-07-31T04:17:05;30.90;29.70
80258;DHT22;69565;37.974;23.708;2023-07-31T04:19:31;31.00;30.80
80258;DHT22;69565;37.974;23.708;2023-07-31T04:21:57;31.00;30.90
80258;DHT22;69565;37.974;23.708;2023-07-31T04:24:22;31.00;31.20
80258;DHT22;69565;37.974;23.708;2023-07-31T04:26:52;31.00;31.10
80258;DHT22;69565;37.974;23.708;2023-07-31T04:29:18;31.10;31.10
80258;DHT22;69565;37.974;23.708;2023-07-31T04:31:44;31.10;30.90
80258;DHT22;69565;37.974;23.708;2023-07-31T04:34:09;31.20;30.80
80258;DHT22;69565;37.974;23.708;2023-07-31T04:36:36;31.20;30.60
80258;DHT22;69565;37.974;23.708;2023-07-31T04:39:02;31.20;30.50
80258;DHT22;69565;37.974;23.708;2023-07-31T04:41:28;31.30;30.50
80258;DHT22;69565;37.974;23.708;2023-07-31T04:43:53;31.40;30.50
80258;DHT22;69565;37.974;23.708;2023-07-31T04:46:19;31.40;30.20
80258;DHT22;69565;37.974;23.708;2023-07-31T04:48:44;31.40;30.10
80258;DHT22;69565;37.974;23.708;2023-07-31T04:51:10;31.50;30.10
80258;DHT22;69565;37.974;23.708;2023-07-31T04:53:36;31.50;30.00
80258;DHT22;69565;37.974;23.708;2023-07-31T04:56:02;31.60;29.90
80258;DHT22;69565;37.974;23.708;2023-07-31T04:58:27;31.60;29.70
80258;DHT22;69565;37.974;23.708;2023-07-31T05:00:53;31.70;29.70
80258;DHT22;69565;37.974;23.708;2023-07-31T05:03:19;31.70;29.60
80258;DHT22;69565;37.974;23.708;2023-07-31T05:05:44;31.70;29.50
80258;DHT22;69565;37.974;23.708;2023-07-31T05:08:10;31.80;29.40
80258;DHT22;69565;37.974;23.708;2023-07-31T05:10:36;31.80;29.30
80258;DHT22;69565;37.974;23.708;2023-07-31T05:13:02;31.90;29.30
80258;DHT22;69565;37.974;23.708;2023-07-31T05:15:28;31.90;29.20
80258;DHT22;69565;37.974;23.708;2023-07-31T05:17:54;31.90;29.10
80258;DHT22;69565;37.974;23.708;2023-07-31T05:20:20;32.00;29.10
80258;DHT22;69565;37.974;23.708;2023-07-31T05:22:46;32.10;29.00
80258;DHT22;69565;37.974;23.708;2023-07-31T05:25:12;32.10;28.90
80258;DHT22;69565;37.974;23.708;2023-07-31T05:27:38;32.10;28.80
80258;DHT22;69565;37.974;23.708;2023-07-31T05:30:04;32.10;28.80
80258;DHT22;69565;37.974;23.708;2023-07-31T05:32:32;32.20;28.80
80258;DHT22;69565;37.974;23.708;2023-07-31T05:34:57;32.20;28.80
80258;DHT22;69565;37.974;23.708;2023-07-31T05:37:23;32.20;28.70
80258;DHT22;69565;37.974;23.708;2023-07-31T05:39:49;32.20;28.70
80258;DHT22;69565;37.974;23.708;2023-07-31T05:42:15;32.20;28.60
80258;DHT22;69565;37.974;23.708;2023-07-31T05:44:40;32.20;28.60
80258;DHT22;69565;37.974;23.708;2023-07-31T05:47:06;32.20;28.50
80258;DHT22;69565;37.974;23.708;2023-07-31T05:49:32;32.20;28.50
80258;DHT22;69565;37.974;23.708;2023-07-31T05:51:57;32.20;28.40
80258;DHT22;69565;37.974;23.708;2023-07-31T05:54:23;32.20;28.40
80258;DHT22;69565;37.974;23.708;2023-07-31T05:56:49;32.20;28.40
80258;DHT22;69565;37.974;23.708;2023-07-31T05:59:16;32.20;28.40
80258;DHT22;69565;37.974;23.708;2023-07-31T06:01:42;32.20;28.30
80258;DHT22;69565;37.974;23.708;2023-07-31T06:04:08;32.20;28.30
80258;DHT22;69565;37.974;23.708;2023-07-31T06:06:34;32.30;28.30
80258;DHT22;69565;37.974;23.708;2023-07-31T06:08:59;32.30;28.20
80258;DHT22;69565;37.974;23.708;2023-07-31T06:11:25;32.20;28.10
80258;DHT22;69565;37.974;23.708;2023-07-31T06:13:51;32.30;28.00
80258;DHT22;69565;37.974;23.708;2023-07-31T06:16:17;32.20;27.90
80258;DHT22;69565;37.974;23.708;2023-07-31T06:18:42;32.40;27.80
80258;DHT22;69565;37.974;23.708;2023-07-31T06:21:09;32.40;27.60
80258;DHT22;69565;37.974;23.708;2023-07-31T06:23:35;32.40;27.50
80258;DHT22;69565;37.974;23.708;2023-07-31T06:26:01;32.40;27.40
80258;DHT22;69565;37.974;23.708;2023-07-31T06:28:31;32.40;27.40
80258;DHT22;69565;37.974;23.708;2023-07-31T06:30:57;32.50;27.50
80258;DHT22;69565;37.974;23.708;2023-07-31T06:33:24;32.50;27.50
80258;DHT22;69565;37.974;23.708;2023-07-31T06:35:50;32.50;27.50
80258;DHT22;69565;37.974;23.708;2023-07-31T06:38:18;32.50;27.50
80258;DHT22;69565;37.974;23.708;2023-07-31T06:40:44;32.50;27.50
80258;DHT22;69565;37.974;23.708;2023-07-31T06:43:10;32.50;27.40
80258;DHT22;69565;37.974;23.708;2023-07-31T06:45:36;32.50;27.40
80258;DHT22;69565;37.974;23.708;2023-07-31T06:48:02;32.50;27.30
80258;DHT22;69565;37.974;23.708;2023-07-31T06:50:30;32.50;27.20
80258;DHT22;69565;37.974;23.708;2023-07-31T06:52:56;32.60;27.40
80258;DHT22;69565;37.974;23.708;2023-07-31T06:55:22;32.50;27.20
80258;DHT22;69565;37.974;23.708;2023-07-31T06:57:49;32.60;27.30
80258;DHT22;69565;37.974;23.708;2023-07-31T07:00:16;32.60;27.40
80258;DHT22;69565;37.974;23.708;2023-07-31T07:02:42;32.60;27.60
80258;DHT22;69565;37.974;23.708;2023-07-31T07:05:08;32.60;27.50
80258;DHT22;69565;37.974;23.708;2023-07-31T07:07:34;32.70;27.60
80258;DHT22;69565;37.974;23.708;2023-07-31T07:10:00;32.60;27.60
80258;DHT22;69565;37.974;23.708;2023-07-31T07:12:28;32.70;27.60
80258;DHT22;69565;37.974;23.708;2023-07-31T07:14:54;32.70;27.60
80258;DHT22;69565;37.974;23.708;2023-07-31T07:17:20;32.70;27.60
80258;DHT22;69565;37.974;23.708;2023-07-31T07:19:48;32.70;27.40
80258;DHT22;69565;37.974;23.708;2023-07-31T07:22:14;32.70;27.30
80258;DHT22;69565;37.974;23.708;2023-07-31T07:24:40;32.70;27.20
80258;DHT22;69565;37.974;23.708;2023-07-31T07:27:06;32.70;27.30
80258;DHT22;69565;37.974;23.708;2023-07-31T07:29:31;32.60;27.30
80258;DHT22;69565;37.974;23.708;2023-07-31T07:31:57;32.60;27.30
80258;DHT22;69565;37.974;23.708;2023-07-31T07:34:27;32.60;27.40
80258;DHT22;69565;37.974;23.708;2023-07-31T07:36:54;32.60;27.30
80258;DHT22;69565;37.974;23.708;2023-07-31T07:39:20;32.70;27.30
80258;DHT22;69565;37.974;23.708;2023-07-31T07:41:46;32.80;27.10
80258;DHT22;69565;37.974;23.708;2023-07-31T07:44:12;32.80;27.10
80258;DHT22;69565;37.974;23.708;2023-07-31T07:46:38;32.70;27.10
80258;DHT22;69565;37.974;23.708;2023-07-31T07:49:04;32.70;27.20
80258;DHT22;69565;37.974;23.708;2023-07-31T07:51:30;32.70;27.30
80258;DHT22;69565;37.974;23.708;2023-07-31T07:53:57;32.70;27.10
80258;DHT22;69565;37.974;23.708;2023-07-31T07:56:25;32.70;26.80
80258;DHT22;69565;37.974;23.708;2023-07-31T07:58:51;32.70;26.90
80258;DHT22;69565;37.974;23.708;2023-07-31T08:01:17;32.70;27.00
80258;DHT22;69565;37.974;23.708;2023-07-31T08:03:42;32.70;27.10
80258;DHT22;69565;37.974;23.708;2023-07-31T08:06:09;32.60;27.20
80258;DHT22;69565;37.974;23.708;2023-07-31T08:08:36;32.50;27.20
80258;DHT22;69565;37.974;23.708;2023-07-31T08:11:02;32.50;27.20
80258;DHT22;69565;37.974;23.708;2023-07-31T08:13:27;32.50;27.20
80258;DHT22;69565;37.974;23.708;2023-07-31T08:15:53;32.50;27.20
80258;DHT22;69565;37.974;23.708;2023-07-31T08:18:19;32.50;27.10
80258;DHT22;69565;37.974;23.708;2023-07-31T08:20:45;32.50;27.20
80258;DHT22;69565;37.974;23.708;2023-07-31T08:23:11;32.50;27.10
80258;DHT22;69565;37.974;23.708;2023-07-31T08:25:37;32.50;27.10
80258;DHT22;69565;37.974;23.708;2023-07-31T08:28:06;32.50;27.10
80258;DHT22;69565;37.974;23.708;2023-07-31T08:30:33;32.50;27.00
80258;DHT22;69565;37.974;23.708;2023-07-31T08:32:59;32.60;27.00
80258;DHT22;69565;37.974;23.708;2023-07-31T08:35:26;32.50;26.90
80258;DHT22;69565;37.974;23.708;2023-07-31T08:37:53;32.50;26.90
80258;DHT22;69565;37.974;23.708;2023-07-31T08:40:19;32.50;26.90
80258;DHT22;69565;37.974;23.708;2023-07-31T08:42:48;32.50;26.90
80258;DHT22;69565;37.974;23.708;2023-07-31T08:45:16;32.50;26.90
80258;DHT22;69565;37.974;23.708;2023-07-31T08:47:46;32.40;26.80
80258;DHT22;69565;37.974;23.708;2023-07-31T08:50:13;32.40;26.80
80258;DHT22;69565;37.974;23.708;2023-07-31T08:52:39;32.50;26.80
80258;DHT22;69565;37.974;23.708;2023-07-31T08:55:06;32.40;26.80
80258;DHT22;69565;37.974;23.708;2023-07-31T08:57:35;32.50;26.80
80258;DHT22;69565;37.974;23.708;2023-07-31T09:00:02;32.50;26.80
80258;DHT22;69565;37.974;23.708;2023-07-31T09:02:52;32.50;26.80
80258;DHT22;69565;37.974;23.708;2023-07-31T09:05:20;32.50;26.80
80258;DHT22;69565;37.974;23.708;2023-07-31T09:07:47;32.50;27.00
80258;DHT22;69565;37.974;23.708;2023-07-31T09:10:13;32.50;27.10
80258;DHT22;69565;37.974;23.708;2023-07-31T09:12:39;32.50;27.10
80258;DHT22;69565;37.974;23.708;2023-07-31T09:15:06;32.50;27.10
80258;DHT22;69565;37.974;23.708;2023-07-31T09:17:36;32.60;27.20
80258;DHT22;69565;37.974;23.708;2023-07-31T09:20:19;32.60;27.00
80258;DHT22;69565;37.974;23.708;2023-07-31T09:22:46;32.60;27.00
80258;DHT22;69565;37.974;23.708;2023-07-31T09:25:23;32.60;26.90
80258;DHT22;69565;37.974;23.708;2023-07-31T09:27:53;32.60;27.00
80258;DHT22;69565;37.974;23.708;2023-07-31T09:30:20;32.80;26.70
80258;DHT22;69565;37.974;23.708;2023-07-31T09:32:47;32.50;26.80
80258;DHT22;69565;37.974;23.708;2023-07-31T09:35:20;32.40;27.20
80258;DHT22;69565;37.974;23.708;2023-07-31T09:37:56;32.30;28.10
80258;DHT22;69565;37.974;23.708;2023-07-31T09:40:33;32.20;28.30
80258;DHT22;69565;37.974;23.708;2023-07-31T09:43:04;32.20;29.00
80258;DHT22;69565;37.974;23.708;2023-07-31T09:45:34;32.20;29.70
80258;DHT22;69565;37.974;23.708;2023-07-31T09:48:00;32.10;30.00
80258;DHT22;69565;37.974;23.708;2023-07-31T09:50:25;32.10;30.20
80258;DHT22;69565;37.974;23.708;2023-07-31T09:52:52;32.00;30.80
80258;DHT22;69565;37.974;23.708;2023-07-31T09:55:18;31.90;30.90
80258;DHT22;69565;37.974;23.708;2023-07-31T09:57:48;31.90;31.40
80258;DHT22;69565;37.974;23.708;2023-07-31T10:00:18;31.90;31.90
80258;DHT22;69565;37.974;23.708;2023-07-31T10:02:48;31.80;31.90
80258;DHT22;69565;37.974;23.708;2023-07-31T10:05:16;31.80;31.80
80258;DHT22;69565;37.974;23.708;2023-07-31T10:07:45;31.80;33.00
80258;DHT22;69565;37.974;23.708;2023-07-31T10:10:16;31.80;31.80
80258;DHT22;69565;37.974;23.708;2023-07-31T10:12:42;31.80;32.10
80258;DHT22;69565;37.974;23.708;2023-07-31T10:15:09;31.80;32.40
80258;DHT22;69565;37.974;23.708;2023-07-31T10:17:36;31.70;32.40
80258;DHT22;69565;37.974;23.708;2023-07-31T10:20:03;31.70;32.60
80258;DHT22;69565;37.974;23.708;2023-07-31T10:22:31;31.70;32.60
80258;DHT22;69565;37.974;23.708;2023-07-31T10:25:00;31.70;32.90
80258;DHT22;69565;37.974;23.708;2023-07-31T10:27:26;31.70;32.90
80258;DHT22;69565;37.974;23.708;2023-07-31T10:29:54;31.60;32.80
80258;DHT22;69565;37.974;23.708;2023-07-31T10:32:21;31.60;33.00
80258;DHT22;69565;37.974;23.708;2023-07-31T10:34:48;31.50;33.00
80258;DHT22;69565;37.974;23.708;2023-07-31T10:37:21;31.50;33.10
80258;DHT22;69565;37.974;23.708;2023-07-31T10:42:28;31.60;33.20
80258;DHT22;69565;37.974;23.708;2023-07-31T10:44:59;31.60;32.30
80258;DHT22;69565;37.974;23.708;2023-07-31T10:47:25;31.40;32.20
80258;DHT22;69565;37.974;23.708;2023-07-31T10:49:51;31.30;32.50
80258;DHT22;69565;37.974;23.708;2023-07-31T10:52:21;31.30;32.50
80258;DHT22;69565;37.974;23.708;2023-07-31T10:57:44;31.30;32.20
80258;DHT22;69565;37.974;23.708;2023-07-31T11:00:25;31.30;32.00
80258;DHT22;69565;37.974;23.708;2023-07-31T11:03:08;31.30;31.90
80258;DHT22;69565;37.974;23.708;2023-07-31T11:08:31;31.20;32.20
80258;DHT22;69565;37.974;23.708;2023-07-31T11:13:48;31.10;32.10
80258;DHT22;69565;37.974;23.708;2023-07-31T11:16:24;31.10;32.40
80258;DHT22;69565;37.974;23.708;2023-07-31T11:18:51;31.10;32.50
80258;DHT22;69565;37.974;23.708;2023-07-31T11:21:22;31.10;32.60
80258;DHT22;69565;37.974;23.708;2023-07-31T11:23:50;31.10;32.70
80258;DHT22;69565;37.974;23.708;2023-07-31T11:26:17;31.10;32.30
80258;DHT22;69565;37.974;23.708;2023-07-31T11:28:43;31.00;32.70
80258;DHT22;69565;37.974;23.708;2023-07-31T11:31:10;31.00;33.10
80258;DHT22;69565;37.974;23.708;2023-07-31T11:33:36;31.00;33.00
80258;DHT22;69565;37.974;23.708;2023-07-31T11:36:02;31.00;32.60
80258;DHT22;69565;37.974;23.708;2023-07-31T11:38:31;31.00;33.20
80258;DHT22;69565;37.974;23.708;2023-07-31T11:40:59;31.00;33.20
80258;DHT22;69565;37.974;23.708;2023-07-31T11:43:25;31.10;33.20
80258;DHT22;69565;37.974;23.708;2023-07-31T11:45:54;31.00;32.90
80258;DHT22;69565;37.974;23.708;2023-07-31T11:48:28;31.00;33.30
80258;DHT22;69565;37.974;23.708;2023-07-31T11:50:57;31.00;33.40
80258;DHT22;69565;37.974;23.708;2023-07-31T11:53:27;31.00;33.70
80258;DHT22;69565;37.974;23.708;2023-07-31T11:55:55;31.00;33.00
80258;DHT22;69565;37.974;23.708;2023-07-31T11:58:22;31.00;33.90
80258;DHT22;69565;37.974;23.708;2023-07-31T12:00:48;31.00;33.90
80258;DHT22;69565;37.974;23.708;2023-07-31T12:03:15;30.90;33.50
80258;DHT22;69565;37.974;23.708;2023-07-31T12:05:41;31.00;33.70
80258;DHT22;69565;37.974;23.708;2023-07-31T12:08:11;31.00;33.60
80258;DHT22;69565;37.974;23.708;2023-07-31T12:10:40;31.00;32.90
80258;DHT22;69565;37.974;23.708;2023-07-31T12:13:11;31.00;33.20
80258;DHT22;69565;37.974;23.708;2023-07-31T12:15:42;31.00;33.30
80258;DHT22;69565;37.974;23.708;2023-07-31T12:18:13;31.00;32.80
80258;DHT22;69565;37.974;23.708;2023-07-31T12:20:40;31.10;33.20
80258;DHT22;69565;37.974;23.708;2023-07-31T12:23:07;31.10;33.20
80258;DHT22;69565;37.974;23.708;2023-07-31T12:25:33;31.00;32.70
80258;DHT22;69565;37.974;23.708;2023-07-31T12:28:08;31.00;33.00
80258;DHT22;69565;37.974;23.708;2023-07-31T12:30:38;31.10;33.10
80258;DHT22;69565;37.974;23.708;2023-07-31T12:33:12;31.10;34.10
80258;DHT22;69565;37.974;23.708;2023-07-31T12:35:39;31.10;33.00
80258;DHT22;69565;37.974;23.708;2023-07-31T12:38:06;31.10;32.80
80258;DHT22;69565;37.974;23.708;2023-07-31T12:40:32;31.10;33.00
80258;DHT22;69565;37.974;23.708;2023-07-31T12:43:00;31.10;32.90
80258;DHT22;69565;37.974;23.708;2023-07-31T12:45:27;31.10;33.00
80258;DHT22;69565;37.974;23.708;2023-07-31T12:47:53;31.20;33.10
80258;DHT22;69565;37.974;23.708;2023-07-31T12:50:19;31.20;33.20
80258;DHT22;69565;37.974;23.708;2023-07-31T12:52:45;31.30;33.20
80258;DHT22;69565;37.974;23.708;2023-07-31T12:55:10;31.30;33.20
80258;DHT22;69565;37.974;23.708;2023-07-31T12:57:36;31.40;33.30
80258;DHT22;69565;37.974;23.708;2023-07-31T13:00:03;31.50;33.40
80258;DHT22;69565;37.974;23.708;2023-07-31T13:02:29;31.50;33.30
80258;DHT22;69565;37.974;23.708;2023-07-31T13:04:54;31.60;33.40
80258;DHT22;69565;37.974;23.708;2023-07-31T13:07:22;31.60;33.30
80258;DHT22;69565;37.974;23.708;2023-07-31T13:09:48;31.70;33.60
80258;DHT22;69565;37.974;23.708;2023-07-31T13:12:14;31.60;33.50
80258;DHT22;69565;37.974;23.708;2023-07-31T13:14:39;31.70;33.60
80258;DHT22;69565;37.974;23.708;2023-07-31T13:17:05;31.70;33.60
80258;DHT22;69565;37.974;23.708;2023-07-31T13:19:31;31.70;33.60
80258;DHT22;69565;37.974;23.708;2023-07-31T13:21:57;31.80;33.70
80258;DHT22;69565;37.974;23.708;2023-07-31T13:24:22;31.80;34.00
80258;DHT22;69565;37.974;23.708;2023-07-31T13:26:48;31.80;33.90
80258;DHT22;69565;37.974;23.708;2023-07-31T13:29:14;31.90;33.90
80258;DHT22;69565;37.974;23.708;2023-07-31T13:31:39;31.90;33.90
80258;DHT22;69565;37.974;23.708;2023-07-31T13:34:05;31.90;33.90
80258;DHT22;69565;37.974;23.708;2023-07-31T13:36:31;31.90;33.90
80258;DHT22;69565;37.974;23.708;2023-07-31T13:38:56;31.90;33.90
80258;DHT22;69565;37.974;23.708;2023-07-31T13:41:22;31.90;34.10
80258;DHT22;69565;37.974;23.708;2023-07-31T13:43:48;31.90;34.10
80258;DHT22;69565;37.974;23.708;2023-07-31T13:46:13;31.90;34.20
80258;DHT22;69565;37.974;23.708;2023-07-31T13:48:39;31.90;34.40
80258;DHT22;69565;37.974;23.708;2023-07-31T13:51:05;31.90;34.50
80258;DHT22;69565;37.974;23.708;2023-07-31T13:53:31;31.90;34.60
80258;DHT22;69565;37.974;23.708;2023-07-31T13:55:56;32.00;34.70
80258;DHT22;69565;37.974;23.708;2023-07-31T13:58:22;31.90;34.70
80258;DHT22;69565;37.974;23.708;2023-07-31T14:00:48;31.90;34.80
80258;DHT22;69565;37.974;23.708;2023-07-31T14:03:14;31.90;34.80
80258;DHT22;69565;37.974;23.708;2023-07-31T14:05:40;31.90;35.10
80258;DHT22;69565;37.974;23.708;2023-07-31T14:08:05;31.90;35.10
80258;DHT22;69565;37.974;23.708;2023-07-31T14:10:31;31.90;35.30
80258;DHT22;69565;37.974;23.708;2023-07-31T14:12:57;31.90;35.30
80258;DHT22;69565;37.974;23.708;2023-07-31T14:15:22;32.00;35.50
80258;DHT22;69565;37.974;23.708;2023-07-31T14:17:48;32.00;35.60
80258;DHT22;69565;37.974;23.708;2023-07-31T14:20:14;32.00;35.60
80258;DHT22;69565;37.974;23.708;2023-07-31T14:22:39;32.00;35.60
80258;DHT22;69565;37.974;23.708;2023-07-31T14:25:05;32.00;35.60
80258;DHT22;69565;37.974;23.708;2023-07-31T14:27:31;32.00;35.60
80258;DHT22;69565;37.974;23.708;2023-07-31T14:29:57;31.90;35.40
80258;DHT22;69565;37.974;23.708;2023-07-31T14:32:23;32.00;35.50
80258;DHT22;69565;37.974;23.708;2023-07-31T14:34:51;32.00;35.40
80258;DHT22;69565;37.974;23.708;2023-07-31T14:37:16;32.00;35.30
80258;DHT22;69565;37.974;23.708;2023-07-31T14:39:42;32.00;35.20
80258;DHT22;69565;37.974;23.708;2023-07-31T14:42:09;32.10;35.20
80258;DHT22;69565;37.974;23.708;2023-07-31T14:44:34;32.00;35.10
80258;DHT22;69565;37.974;23.708;2023-07-31T14:47:00;32.00;35.00
80258;DHT22;69565;37.974;23.708;2023-07-31T14:49:26;32.00;35.10
80258;DHT22;69565;37.974;23.708;2023-07-31T14:51:54;32.00;35.10
80258;DHT22;69565;37.974;23.708;2023-07-31T14:54:20;32.00;35.10
80258;DHT22;69565;37.974;23.708;2023-07-31T14:56:45;32.00;35.20
80258;DHT22;69565;37.974;23.708;2023-07-31T14:59:11;32.00;35.20
80258;DHT22;69565;37.974;23.708;2023-07-31T15:01:37;32.00;35.20
80258;DHT22;69565;37.974;23.708;2023-07-31T15:04:03;32.00;35.10
80258;DHT22;69565;37.974;23.708;2023-07-31T15:06:29;32.00;35.10
80258;DHT22;69565;37.974;23.708;2023-07-31T15:08:55;32.00;35.00
80258;DHT22;69565;37.974;23.708;2023-07-31T15:11:20;32.00;35.00
80258;DHT22;69565;37.974;23.708;2023-07-31T15:13:46;31.90;35.00
80258;DHT22;69565;37.974;23.708;2023-07-31T15:16:12;31.90;34.90
80258;DHT22;69565;37.974;23.708;2023-07-31T15:18:38;31.90;34.90
80258;DHT22;69565;37.974;23.708;2023-07-31T15:21:04;31.90;34.80
80258;DHT22;69565;37.974;23.708;2023-07-31T15:23:31;31.90;34.90
80258;DHT22;69565;37.974;23.708;2023-07-31T15:25:56;31.90;34.90
80258;DHT22;69565;37.974;23.708;2023-07-31T15:28:22;32.00;35.00
80258;DHT22;69565;37.974;23.708;2023-07-31T15:30:48;32.00;35.00